Time;durP1;ratioP1;P1;durP2;ratioP2;P2;SDS_P1;SDS_P2;PMS_P1;PMS_P2;Temp;Humidity;BMP_temperature;BMP_pressure;BME280_temperature;BME280_humidity;BME280_pressure;Samples;Min_cycle;Max_cycle;Signal;HPM_P1;HPM_P2
2023/05/03 00:02:20;;;;;;;708.83;668.90;;;2.90;99.90;;;;;;6185462;23;20417;-87
2023/05/03 00:04:47;;;;;;;695.63;656.43;;;2.90;99.90;;;;;;6194869;23;20429;-87
2023/05/03 00:07:15;;;;;;;676.87;640.07;;;3.00;99.90;;;;;;6185915;23;20476;-88
2023/05/03 00:09:42;;;;;;;671.07;635.30;;;2.90;99.90;;;;;;6186819;23;20720;-87
2023/05/03 00:12:09;;;;;;;652.87;618.27;;;2.90;99.90;;;;;;6195011;23;20577;-87
2023/05/03 00:14:38;;;;;;;746.47;702.67;;;2.90;99.90;;;;;;6185220;23;20492;-87
2023/05/03 00:17:05;;;;;;;783.93;735.23;;;2.90;99.90;;;;;;6185421;23;20453;-87
2023/05/03 00:19:32;;;;;;;765.40;720.17;;;2.90;99.90;;;;;;6186311;23;20421;-88
2023/05/03 00:21:59;;;;;;;774.87;732.00;;;2.90;99.90;;;;;;6185239;23;20794;-87
2023/05/03 00:24:27;;;;;;;794.57;751.40;;;2.80;99.90;;;;;;6184628;23;20413;-87
2023/05/03 00:26:54;;;;;;;805.80;761.60;;;2.70;99.90;;;;;;6185343;23;20716;-87
2023/05/03 00:29:21;;;;;;;858.00;807.83;;;2.70;99.90;;;;;;6196211;23;20456;-87
2023/05/03 00:31:50;;;;;;;847.60;800.03;;;2.70;99.90;;;;;;6185723;23;20429;-87
2023/05/03 00:34:17;;;;;;;859.40;811.33;;;2.80;99.90;;;;;;6185010;23;20417;-87
2023/05/03 00:36:44;;;;;;;859.20;810.53;;;2.80;99.90;;;;;;6195174;23;20472;-87
2023/05/03 00:39:11;;;;;;;868.57;817.57;;;2.70;99.90;;;;;;6197368;23;20417;-86
2023/05/03 00:41:38;;;;;;;884.67;831.27;;;2.70;99.90;;;;;;6195167;23;20409;-87
2023/05/03 00:44:05;;;;;;;892.47;835.77;;;2.70;99.90;;;;;;6194475;23;20416;-87
2023/05/03 00:46:32;;;;;;;895.37;835.40;;;2.70;99.90;;;;;;6185381;23;20754;-87
2023/05/03 00:49:04;;;;;;;863.70;803.87;;;2.60;99.90;;;;;;6187502;23;20528;-87
2023/05/03 00:51:31;;;;;;;868.30;809.80;;;2.60;99.90;;;;;;6187829;23;20476;-87
2023/05/03 00:53:59;;;;;;;874.13;816.33;;;2.50;99.90;;;;;;6196986;23;20409;-87
2023/05/03 00:56:26;;;;;;;877.17;818.13;;;2.30;99.90;;;;;;6186948;23;20416;-88
2023/05/03 00:58:54;;;;;;;873.60;812.53;;;2.30;99.90;;;;;;6188535;23;20451;-87
2023/05/03 01:01:21;;;;;;;854.63;793.17;;;2.20;99.90;;;;;;6186950;23;20471;-87
2023/05/03 01:03:49;;;;;;;862.00;801.37;;;2.30;99.90;;;;;;6187075;23;20422;-88
2023/05/03 01:06:26;;;;;;;865.10;804.90;;;2.30;99.90;;;;;;6187590;23;20440;-87
2023/05/03 01:09:00;;;;;;;864.20;803.40;;;2.20;99.90;;;;;;6188404;23;20423;-87
2023/05/03 01:11:34;;;;;;;874.50;813.93;;;2.30;99.90;;;;;;6187243;23;20475;-87
2023/05/03 01:14:09;;;;;;;881.70;821.80;;;2.20;99.90;;;;;;6196385;23;20753;-87
2023/05/03 01:16:40;;;;;;;866.93;809.67;;;2.30;99.90;;;;;;6187093;23;20451;-88
2023/05/03 01:19:20;;;;;;;856.70;800.70;;;2.30;99.90;;;;;;6188514;23;20433;-87
2023/05/03 01:21:57;;;;;;;868.10;811.60;;;2.30;99.90;;;;;;6186735;23;20480;-87
2023/05/03 01:24:27;;;;;;;877.10;819.40;;;2.10;99.90;;;;;;6187078;23;20433;-88
2023/05/03 01:26:56;;;;;;;859.77;801.53;;;1.90;99.90;;;;;;6187098;23;20460;-87
2023/05/03 01:29:26;;;;;;;864.37;807.00;;;2.00;99.90;;;;;;6198713;23;20421;-87
2023/05/03 01:31:59;;;;;;;878.53;819.83;;;2.00;99.90;;;;;;6187548;23;20397;-87
2023/05/03 01:34:33;;;;;;;891.10;830.30;;;2.10;99.90;;;;;;6186489;23;20462;-88
2023/05/03 01:37:09;;;;;;;866.40;807.37;;;2.10;99.90;;;;;;6187133;23;20429;-88
2023/05/03 01:39:42;;;;;;;880.00;818.00;;;2.20;99.90;;;;;;6188416;23;20400;-88
2023/05/03 01:42:10;;;;;;;860.97;798.23;;;2.20;99.90;;;;;;6186607;23;20487;-87
2023/05/03 01:44:38;;;;;;;865.10;801.73;;;2.20;99.90;;;;;;6186727;23;20766;-87
2023/05/03 01:47:05;;;;;;;857.00;795.03;;;2.10;99.90;;;;;;6187029;23;20523;-87
2023/05/03 01:49:33;;;;;;;863.53;802.30;;;2.10;99.90;;;;;;6188044;23;20776;-87
2023/05/03 01:52:00;;;;;;;873.97;813.17;;;2.00;99.90;;;;;;6196257;23;20468;-88
2023/05/03 01:54:27;;;;;;;885.77;823.80;;;2.00;99.90;;;;;;6195991;23;20471;-87
2023/05/03 01:56:54;;;;;;;880.87;819.47;;;2.00;99.90;;;;;;6186495;23;20449;-88
2023/05/03 01:59:23;;;;;;;889.57;824.43;;;2.00;99.90;;;;;;6187760;23;20420;-87
2023/05/03 02:01:49;;;;;;;889.70;824.13;;;1.90;99.90;;;;;;6185724;23;20445;-87
2023/05/03 02:04:16;;;;;;;891.90;823.73;;;1.90;99.90;;;;;;6186348;23;20466;-87
2023/05/03 02:06:43;;;;;;;884.93;814.20;;;1.90;99.90;;;;;;6186568;23;20779;-87
2023/05/03 02:09:11;;;;;;;882.10;809.50;;;1.90;99.90;;;;;;6187903;23;20423;-87
2023/05/03 02:11:38;;;;;;;881.53;807.67;;;1.80;99.90;;;;;;6196545;23;20491;-87
2023/05/03 02:14:04;;;;;;;878.30;804.93;;;1.70;99.90;;;;;;6185987;23;20185;-87
2023/05/03 02:16:33;;;;;;;866.23;793.13;;;1.80;99.90;;;;;;6185979;23;20448;-87
2023/05/03 02:19:00;;;;;;;869.27;796.43;;;1.70;99.90;;;;;;6197264;23;20417;-87
2023/05/03 02:21:27;;;;;;;860.57;786.23;;;1.60;99.90;;;;;;6186839;23;20420;-87
2023/05/03 02:23:54;;;;;;;866.00;791.60;;;1.70;99.90;;;;;;6196011;23;20985;-88
2023/05/03 02:26:24;;;;;;;866.63;792.97;;;1.60;99.90;;;;;;6185856;23;20439;-88
2023/05/03 02:28:51;;;;;;;873.87;797.70;;;1.60;99.90;;;;;;6187370;23;20413;-87
2023/05/03 02:31:18;;;;;;;863.83;788.77;;;1.60;99.90;;;;;;6186432;23;20422;-87
2023/05/03 02:33:46;;;;;;;866.83;792.10;;;1.60;99.90;;;;;;6185624;23;20445;-87
2023/05/03 02:36:13;;;;;;;874.23;798.17;;;1.50;99.90;;;;;;6185769;23;20409;-87
2023/05/03 02:38:40;;;;;;;868.30;791.83;;;1.60;99.90;;;;;;6197208;23;20422;-87
2023/05/03 02:41:07;;;;;;;863.13;786.97;;;1.50;99.90;;;;;;6186571;23;20451;-87
2023/05/03 02:43:34;;;;;;;869.30;792.10;;;1.40;99.90;;;;;;6185909;23;20417;-87
2023/05/03 02:46:01;;;;;;;867.73;790.10;;;1.50;99.90;;;;;;6185793;23;20828;-87
2023/05/03 02:48:28;;;;;;;857.07;779.33;;;1.40;99.90;;;;;;6187279;23;20808;-87
2023/05/03 02:50:57;;;;;;;860.93;783.03;;;1.40;99.90;;;;;;6196138;23;20413;-87
2023/05/03 02:53:24;;;;;;;862.10;784.93;;;1.50;99.90;;;;;;6185638;23;20441;-87
2023/05/03 02:55:51;;;;;;;862.53;785.43;;;1.50;99.90;;;;;;6185435;23;20441;-87
2023/05/03 02:58:18;;;;;;;856.23;778.93;;;1.40;99.90;;;;;;6186657;23;20447;-87
2023/05/03 03:00:45;;;;;;;861.47;782.67;;;1.40;99.90;;;;;;6186578;23;20412;-87
2023/05/03 03:03:12;;;;;;;864.30;784.90;;;1.50;99.90;;;;;;6195528;23;20409;-87
2023/05/03 03:05:40;;;;;;;888.87;808.00;;;1.40;99.90;;;;;;6185373;23;20520;-87
2023/05/03 03:08:08;;;;;;;890.25;806.95;;;1.40;99.90;;;;;;6196379;23;20966;-87
2023/05/03 03:10:35;;;;;;;889.93;806.93;;;1.50;99.90;;;;;;6186672;23;20178;-87
2023/05/03 03:13:02;;;;;;;909.97;826.30;;;1.40;99.90;;;;;;6185491;23;20420;-87
2023/05/03 03:15:30;;;;;;;895.23;812.43;;;1.30;99.90;;;;;;6185501;23;20412;-87
2023/05/03 03:17:57;;;;;;;893.83;812.83;;;1.30;99.90;;;;;;6186332;23;20960;-87
2023/05/03 03:20:24;;;;;;;870.07;789.43;;;1.30;99.90;;;;;;6186858;23;20441;-87
2023/05/03 03:22:53;;;;;;;872.57;791.90;;;1.30;99.90;;;;;;6195312;23;20417;-87
2023/05/03 03:25:22;;;;;;;886.60;804.33;;;1.30;99.90;;;;;;6185796;23;20415;-87
2023/05/03 03:27:49;;;;;;;892.67;810.33;;;1.30;99.90;;;;;;6196374;23;20416;-88
2023/05/03 03:30:16;;;;;;;897.30;814.60;;;1.30;99.90;;;;;;6197040;23;20820;-89
2023/05/03 03:32:43;;;;;;;884.58;802.28;;;1.20;99.90;;;;;;6195927;23;20449;-88
2023/05/03 03:35:11;;;;;;;893.40;812.20;;;1.20;99.90;;;;;;6195994;23;20626;-89
2023/05/03 03:37:39;;;;;;;879.33;798.20;;;1.10;99.90;;;;;;6197235;23;20796;-89
2023/05/03 03:40:07;;;;;;;884.87;804.67;;;1.10;99.90;;;;;;6187613;23;20423;-87
2023/05/03 03:42:36;;;;;;;898.63;817.70;;;1.10;99.90;;;;;;6195180;23;20428;-87
2023/05/03 03:45:03;;;;;;;886.67;807.50;;;1.10;99.90;;;;;;6184787;23;20440;-86
2023/05/03 03:47:30;;;;;;;868.37;789.10;;;1.10;99.90;;;;;;6186253;23;20437;-87
2023/05/03 03:49:58;;;;;;;879.23;797.40;;;1.00;99.90;;;;;;6186538;23;20885;-87
2023/05/03 03:52:25;;;;;;;888.03;806.77;;;0.90;99.90;;;;;;6195398;23;20417;-87
2023/05/03 03:54:52;;;;;;;896.03;813.77;;;0.90;99.90;;;;;;6185229;23;20436;-87
2023/05/03 03:57:19;;;;;;;861.73;782.13;;;1.10;99.90;;;;;;6195769;23;20424;-87
2023/05/03 03:59:48;;;;;;;860.73;780.70;;;1.10;99.90;;;;;;6196420;23;20748;-86
2023/05/03 04:02:15;;;;;;;852.93;773.83;;;1.10;99.90;;;;;;6194873;23;20441;-88
2023/05/03 04:04:43;;;;;;;840.20;762.80;;;1.00;99.90;;;;;;6185678;23;20417;-88
2023/05/03 04:07:10;;;;;;;836.13;757.43;;;1.00;99.90;;;;;;6195644;23;20448;-88
2023/05/03 04:09:37;;;;;;;854.90;773.53;;;1.00;99.90;;;;;;6187212;23;20427;-88
2023/05/03 04:12:05;;;;;;;852.00;769.80;;;1.10;99.90;;;;;;6185486;23;20479;-88
2023/05/03 04:14:31;;;;;;;841.63;761.63;;;1.00;99.90;;;;;;6185388;23;20447;-87
2023/05/03 04:17:00;;;;;;;842.73;762.00;;;1.10;99.90;;;;;;6195682;23;20432;-87
2023/05/03 04:19:28;;;;;;;853.43;772.80;;;1.10;99.90;;;;;;6187297;23;20455;-86
2023/05/03 04:21:55;;;;;;;838.47;759.47;;;1.10;99.90;;;;;;6186890;23;20500;-88
2023/05/03 04:25:12;;;;;;;844.47;764.57;;;1.20;99.90;;;;;;6195689;23;20437;-88
2023/05/03 04:27:40;;;;;;;849.13;767.37;;;1.20;99.90;;;;;;6171242;23;20448;-88
2023/05/03 04:30:08;;;;;;;842.53;761.30;;;1.30;99.90;;;;;;6197035;23;20424;-90
2023/05/03 04:32:39;;;;;;;839.83;758.97;;;1.30;99.90;;;;;;6196174;23;20757;-88
2023/05/03 04:35:08;;;;;;;834.03;752.93;;;1.40;99.90;;;;;;6185484;23;20408;-87
2023/05/03 04:37:35;;;;;;;843.93;762.13;;;1.40;99.90;;;;;;6185837;23;20455;-87
2023/05/03 04:40:03;;;;;;;834.77;752.57;;;1.40;99.90;;;;;;6186525;23;20545;-87
2023/05/03 04:42:30;;;;;;;822.03;744.83;;;1.50;99.90;;;;;;6194650;23;20413;-87
2023/05/03 04:44:57;;;;;;;815.20;737.33;;;1.50;99.90;;;;;;6184600;23;20423;-86
2023/05/03 04:47:25;;;;;;;838.87;757.87;;;1.50;99.90;;;;;;6185600;23;20437;-87
2023/05/03 04:49:53;;;;;;;833.90;753.03;;;1.50;99.90;;;;;;6186084;23;20444;-87
2023/05/03 04:52:20;;;;;;;830.77;749.10;;;1.50;99.90;;;;;;6184794;23;20448;-87
2023/05/03 04:54:47;;;;;;;833.70;752.37;;;1.60;99.90;;;;;;6185303;23;20798;-87
2023/05/03 04:57:14;;;;;;;855.10;773.87;;;1.70;99.90;;;;;;6195640;23;20452;-87
2023/05/03 04:59:41;;;;;;;846.23;764.37;;;1.80;99.90;;;;;;6196153;23;20463;-86
2023/05/03 05:02:08;;;;;;;834.77;754.00;;;1.80;99.90;;;;;;6184489;23;20445;-87
2023/05/03 05:04:35;;;;;;;830.40;751.00;;;1.90;99.90;;;;;;6184367;23;20417;-87
2023/05/03 05:07:03;;;;;;;818.40;740.53;;;2.00;99.90;;;;;;6184739;23;20991;-87
2023/05/03 05:09:31;;;;;;;848.30;769.80;;;2.10;99.90;;;;;;6186540;23;20917;-86
2023/05/03 05:11:58;;;;;;;824.83;747.97;;;2.10;99.90;;;;;;6184904;23;20811;-87
2023/05/03 05:14:27;;;;;;;825.17;748.43;;;2.10;99.90;;;;;;6184738;23;20420;-87
2023/05/03 05:16:54;;;;;;;833.87;756.60;;;2.20;99.90;;;;;;6185529;23;20409;-86
2023/05/03 05:19:21;;;;;;;840.37;761.90;;;2.30;99.90;;;;;;6186032;23;20444;-87
2023/05/03 05:21:48;;;;;;;828.70;750.13;;;2.50;99.90;;;;;;6184713;23;20479;-87
2023/05/03 05:24:17;;;;;;;803.50;726.43;;;2.60;99.90;;;;;;6184288;23;20488;-86
2023/05/03 05:26:45;;;;;;;783.97;709.70;;;3.00;99.90;;;;;;6194327;23;20437;-87
2023/05/03 05:29:12;;;;;;;741.90;671.30;;;3.40;99.90;;;;;;6195735;23;20472;-87
2023/05/03 05:31:39;;;;;;;714.57;652.23;;;3.90;99.90;;;;;;6185006;23;20410;-87
2023/05/03 05:34:06;;;;;;;658.47;608.87;;;4.20;99.90;;;;;;6184711;23;20416;-88
2023/05/03 05:36:33;;;;;;;529.23;500.70;;;4.70;99.90;;;;;;6186515;23;20419;-88
2023/05/03 05:39:00;;;;;;;251.63;241.73;;;5.20;99.90;;;;;;6198130;23;20409;-87
2023/05/03 05:41:28;;;;;;;48.83;45.90;;;5.60;99.90;;;;;;6187194;23;20467;-88
2023/05/03 05:43:55;;;;;;;17.57;16.03;;;5.80;99.90;;;;;;6196150;23;20417;-87
2023/05/03 05:46:22;;;;;;;12.07;8.07;;;6.10;99.90;;;;;;6186672;23;20506;-88
2023/05/03 05:48:50;;;;;;;15.00;7.80;;;6.60;99.90;;;;;;6187912;23;20897;-89
2023/05/03 05:51:17;;;;;;;14.97;7.40;;;6.90;99.90;;;;;;6187245;23;20499;-87
2023/05/03 05:53:44;;;;;;;12.90;6.97;;;7.30;99.90;;;;;;6196595;23;20886;-89
2023/05/03 05:56:11;;;;;;;13.87;6.50;;;7.90;99.90;;;;;;6186698;23;20413;-88
2023/05/03 05:58:39;;;;;;;10.07;7.23;;;8.00;99.90;;;;;;6188113;23;20413;-89
2023/05/03 06:01:07;;;;;;;12.97;5.80;;;8.30;99.90;;;;;;6197706;23;20421;-89
2023/05/03 06:03:34;;;;;;;14.50;6.50;;;8.70;99.90;;;;;;6186283;23;20902;-88
2023/05/03 06:06:01;;;;;;;11.50;5.87;;;8.90;99.90;;;;;;6196289;23;20460;-88
2023/05/03 06:08:28;;;;;;;13.83;6.10;;;8.90;99.90;;;;;;6197775;23;20799;-88
2023/05/03 06:10:57;;;;;;;10.10;5.83;;;9.40;99.90;;;;;;6187397;23;20424;-89
2023/05/03 06:13:24;;;;;;;12.67;8.00;;;9.70;99.90;;;;;;6186983;23;20488;-89
2023/05/03 06:15:53;;;;;;;11.60;5.57;;;9.70;97.60;;;;;;6186731;23;20452;-89
2023/05/03 06:18:20;;;;;;;11.20;5.73;;;10.00;96.30;;;;;;6187755;23;20409;-89
2023/05/03 06:20:49;;;;;;;13.50;6.53;;;9.90;94.00;;;;;;6187496;23;20409;-89
2023/05/03 06:23:16;;;;;;;8.80;5.57;;;10.00;94.30;;;;;;6186014;23;20492;-89
2023/05/03 06:25:47;;;;;;;10.70;6.17;;;10.00;92.00;;;;;;6196260;23;20416;-89
2023/05/03 06:28:14;;;;;;;11.07;6.90;;;10.00;92.60;;;;;;6187762;23;20425;-89
2023/05/03 06:30:41;;;;;;;11.40;6.27;;;10.30;93.10;;;;;;6197135;23;20421;-89
2023/05/03 06:33:13;;;;;;;12.47;5.53;;;10.50;88.10;;;;;;6186251;23;20417;-88
2023/05/03 06:35:40;;;;;;;10.37;6.20;;;10.60;87.40;;;;;;6196329;23;20393;-88
2023/05/03 06:38:08;;;;;;;8.53;5.30;;;10.70;84.70;;;;;;6187538;23;20742;-88
2023/05/03 06:40:35;;;;;;;10.97;6.90;;;10.60;83.40;;;;;;6196802;23;20417;-88
2023/05/03 06:43:02;;;;;;;11.30;5.87;;;10.40;81.60;;;;;;6196095;23;20412;-88
2023/05/03 06:45:29;;;;;;;11.13;6.07;;;10.50;86.10;;;;;;6186109;23;20458;-87
2023/05/03 06:47:56;;;;;;;10.47;5.77;;;10.50;83.60;;;;;;6186318;23;21013;-88
2023/05/03 06:50:25;;;;;;;13.67;6.77;;;10.40;84.80;;;;;;6197309;23;20432;-88
2023/05/03 06:52:52;;;;;;;14.27;6.73;;;10.20;82.70;;;;;;6186210;23;20475;-87
2023/05/03 06:55:19;;;;;;;14.33;7.30;;;10.20;84.40;;;;;;6184618;23;20936;-87
2023/05/03 06:57:47;;;;;;;13.13;7.37;;;10.00;86.70;;;;;;6186416;23;20890;-87
2023/05/03 07:00:15;;;;;;;11.67;6.00;;;9.90;85.50;;;;;;6186829;23;20417;-87
2023/05/03 07:02:42;;;;;;;13.10;7.30;;;9.80;87.40;;;;;;6195408;23;20897;-84
2023/05/03 07:05:09;;;;;;;12.83;7.27;;;9.70;86.90;;;;;;6185748;23;20516;-87
2023/05/03 07:07:37;;;;;;;12.93;7.30;;;9.60;88.10;;;;;;6186252;23;20437;-86
2023/05/03 07:10:05;;;;;;;12.73;6.70;;;9.40;88.00;;;;;;6197287;23;20437;-87
2023/05/03 07:12:32;;;;;;;10.50;6.67;;;9.40;90.40;;;;;;6185587;23;20717;-87
2023/05/03 07:14:59;;;;;;;13.57;7.93;;;9.50;90.60;;;;;;6184721;23;20413;-87
2023/05/03 07:17:26;;;;;;;12.63;7.00;;;9.40;90.70;;;;;;6186314;23;20889;-86
2023/05/03 07:19:54;;;;;;;14.60;7.60;;;9.60;90.70;;;;;;6197022;23;20488;-86
2023/05/03 07:22:23;;;;;;;13.27;8.53;;;9.70;90.70;;;;;;6194975;23;20447;-86
2023/05/03 07:24:53;;;;;;;13.67;7.40;;;9.60;90.00;;;;;;6185198;23;20417;-87
2023/05/03 07:27:20;;;;;;;16.70;8.13;;;9.80;90.50;;;;;;6185874;23;20519;-86
2023/05/03 07:29:47;;;;;;;11.10;6.30;;;9.90;91.40;;;;;;6186607;23;20435;-86
2023/05/03 07:32:14;;;;;;;13.90;7.50;;;9.90;87.60;;;;;;6187061;23;20493;-86
2023/05/03 07:34:41;;;;;;;14.15;7.40;;;9.90;90.10;;;;;;6186376;23;20451;-86
2023/05/03 07:37:08;;;;;;;15.37;8.50;;;10.00;88.30;;;;;;6195499;23;20547;-86
2023/05/03 07:39:35;;;;;;;14.77;8.10;;;10.10;90.00;;;;;;6187144;23;20420;-86
2023/05/03 07:42:03;;;;;;;19.80;7.10;;;10.20;87.50;;;;;;6185333;23;20496;-86
2023/05/03 07:44:30;;;;;;;12.60;6.00;;;10.30;84.60;;;;;;6185093;23;20492;-86
2023/05/03 07:46:57;;;;;;;13.57;7.37;;;10.30;80.70;;;;;;6185688;23;20572;-86
2023/05/03 07:49:24;;;;;;;10.87;6.33;;;10.30;84.10;;;;;;6186862;23;20493;-86
2023/05/03 07:51:51;;;;;;;12.70;6.60;;;10.30;81.60;;;;;;6185777;23;20413;-87
2023/05/03 07:54:18;;;;;;;10.93;6.20;;;10.60;79.80;;;;;;6185059;23;20918;-86
2023/05/03 07:56:45;;;;;;;12.90;6.33;;;10.80;77.90;;;;;;6186007;23;20413;-86
2023/05/03 07:59:13;;;;;;;13.37;5.73;;;11.00;75.80;;;;;;6186606;23;20436;-86
2023/05/03 08:01:40;;;;;;;11.17;6.30;;;11.30;73.50;;;;;;6195575;23;20412;-86
2023/05/03 08:04:07;;;;;;;9.90;6.60;;;11.90;75.70;;;;;;6195048;23;20424;-86
2023/05/03 08:06:37;;;;;;;14.50;6.13;;;12.30;67.50;;;;;;6185621;23;20497;-87
2023/05/03 08:09:04;;;;;;;13.83;5.60;;;12.80;64.30;;;;;;6187775;23;20437;-86
2023/05/03 08:11:32;;;;;;;10.07;6.17;;;13.20;64.00;;;;;;6185734;23;20528;-87
2023/05/03 08:13:58;;;;;;;12.30;5.00;;;13.30;58.60;;;;;;6185182;23;20441;-87
2023/05/03 08:16:27;;;;;;;13.83;6.80;;;13.40;54.20;;;;;;6185001;23;20898;-87
2023/05/03 08:18:54;;;;;;;12.80;7.00;;;13.40;54.70;;;;;;6186672;23;20433;-87
2023/05/03 08:21:23;;;;;;;11.77;5.47;;;14.00;54.80;;;;;;6185584;23;20471;-87
2023/05/03 08:23:50;;;;;;;10.77;5.50;;;14.30;50.80;;;;;;6184864;23;20416;-86
2023/05/03 08:26:17;;;;;;;9.17;5.90;;;14.50;49.90;;;;;;6184767;23;20416;-84
2023/05/03 08:28:44;;;;;;;8.40;5.20;;;14.70;47.40;;;;;;6186497;23;20469;-84
2023/05/03 08:31:11;;;;;;;11.67;4.87;;;14.70;45.40;;;;;;6185305;23;20453;-85
2023/05/03 08:33:40;;;;;;;11.90;7.60;;;14.90;44.70;;;;;;6194729;23;20413;-84
2023/05/03 08:36:07;;;;;;;10.47;5.73;;;14.90;47.90;;;;;;6184700;23;20422;-85
2023/05/03 08:38:35;;;;;;;13.40;6.20;;;15.50;45.30;;;;;;6185986;23;20444;-84
2023/05/03 08:41:14;;;;;;;11.67;6.10;;;15.70;42.50;;;;;;6185528;23;20495;-84
2023/05/03 08:43:45;;;;;;;11.87;6.63;;;16.10;40.10;;;;;;6194648;23;20398;-84
2023/05/03 08:46:13;;;;;;;11.43;5.63;;;16.60;36.40;;;;;;6185152;23;20404;-85
2023/05/03 08:48:43;;;;;;;9.90;5.07;;;16.80;34.30;;;;;;6186389;23;20465;-85
2023/05/03 08:51:10;;;;;;;9.10;4.97;;;16.70;27.60;;;;;;6185251;23;20416;-86
2023/05/03 08:53:37;;;;;;;8.03;4.60;;;16.80;29.50;;;;;;6184810;23;20466;-86
2023/05/03 08:56:08;;;;;;;11.33;5.70;;;17.20;25.50;;;;;;6185176;23;20950;-86
2023/05/03 08:58:36;;;;;;;12.07;4.57;;;16.90;26.20;;;;;;6186168;23;20414;-86
2023/05/03 09:01:09;;;;;;;10.00;5.37;;;17.00;28.90;;;;;;6185572;23;20918;-86
2023/05/03 09:03:37;;;;;;;10.67;4.27;;;17.20;25.00;;;;;;6185190;23;20445;-86
2023/05/03 09:06:20;;;;;;;9.60;4.70;;;17.20;28.70;;;;;;6185480;23;20423;-86
2023/05/03 09:08:47;;;;;;;9.13;4.83;;;17.00;23.00;;;;;;6196923;23;20427;-86
2023/05/03 09:11:21;;;;;;;7.33;4.20;;;17.30;21.40;;;;;;6187300;23;20420;-87
2023/05/03 09:13:48;;;;;;;7.43;3.77;;;16.80;22.20;;;;;;6186918;23;20424;-86
2023/05/03 09:16:23;;;;;;;9.80;4.90;;;16.60;20.50;;;;;;6186738;23;20415;-86
2023/05/03 09:18:57;;;;;;;9.75;4.00;;;16.50;18.00;;;;;;6188516;23;20412;-87
2023/05/03 09:21:26;;;;;;;10.13;5.20;;;15.90;22.90;;;;;;6187211;23;20175;-86
2023/05/03 09:23:53;;;;;;;10.30;5.53;;;15.90;24.10;;;;;;6187218;23;20473;-86
2023/05/03 09:26:30;;;;;;;8.60;4.20;;;16.00;19.30;;;;;;6187181;23;20503;-86
2023/05/03 09:29:02;;;;;;;10.20;5.80;;;16.00;19.10;;;;;;6187823;23;20446;-86
2023/05/03 09:31:30;;;;;;;10.30;5.73;;;16.60;21.30;;;;;;6186608;23;20460;-87
2023/05/03 09:33:57;;;;;;;9.67;4.40;;;17.30;17.80;;;;;;6186353;23;20713;-87
2023/05/03 09:36:26;;;;;;;9.13;4.30;;;16.90;17.50;;;;;;6186632;23;20474;-87
2023/05/03 09:38:54;;;;;;;8.60;4.40;;;16.90;17.60;;;;;;6187942;23;20413;-87
2023/05/03 09:41:28;;;;;;;8.83;4.93;;;17.40;18.60;;;;;;6186842;23;20502;-87
2023/05/03 09:44:01;;;;;;;7.33;4.20;;;17.40;15.60;;;;;;6185791;23;20465;-86
2023/05/03 09:46:29;;;;;;;10.48;4.95;;;18.00;14.30;;;;;;6195226;23;20736;-89
2023/05/03 09:48:57;;;;;;;9.33;5.00;;;18.00;12.40;;;;;;6188056;23;20192;-87
2023/05/03 09:51:26;;;;;;;10.03;4.43;;;17.80;15.00;;;;;;6187123;23;20803;-87
2023/05/03 09:53:56;;;;;;;12.00;4.90;;;17.80;18.10;;;;;;6186777;23;20495;-87
2023/05/03 09:56:25;;;;;;;10.07;4.60;;;17.90;14.70;;;;;;6186783;23;20889;-87
2023/05/03 09:58:53;;;;;;;7.57;4.47;;;17.70;15.50;;;;;;6187743;23;20413;-87
2023/05/03 10:01:21;;;;;;;10.97;5.17;;;18.00;10.80;;;;;;6186778;23;20938;-87
2023/05/03 10:03:50;;;;;;;12.93;4.90;;;18.00;10.00;;;;;;6186329;23;20421;-87
2023/05/03 10:06:24;;;;;;;8.40;3.80;;;18.30;12.30;;;;;;6186252;23;20424;-87
2023/05/03 10:08:59;;;;;;;8.23;4.43;;;17.70;14.20;;;;;;6187893;23;20454;-87
2023/05/03 10:11:27;;;;;;;8.27;4.47;;;17.80;10.60;;;;;;6186572;23;20502;-88
2023/05/03 10:13:55;;;;;;;13.60;4.70;;;18.00;10.80;;;;;;6186616;23;20440;-87
2023/05/03 10:16:26;;;;;;;10.37;5.43;;;17.70;12.30;;;;;;6196102;23;20817;-87
2023/05/03 10:18:58;;;;;;;8.10;3.73;;;18.00;12.30;;;;;;6187805;23;20393;-87
2023/05/03 10:21:35;;;;;;;8.57;4.10;;;18.80;7.40;;;;;;6196085;23;20392;-87
2023/05/03 10:24:14;;;;;;;9.20;5.20;;;18.20;8.70;;;;;;6186247;23;20805;-87
2023/05/03 10:26:42;;;;;;;9.67;4.33;;;17.80;6.90;;;;;;6186244;23;20868;-86
2023/05/03 10:29:52;;;;;;;8.80;4.67;;;18.20;5.80;;;;;;6197443;23;20437;-87
2023/05/03 10:32:33;;;;;;;7.47;4.20;;;18.80;6.90;;;;;;6170237;23;20412;-87
2023/05/03 10:35:01;;;;;;;7.37;3.73;;;18.70;4.70;;;;;;6185640;23;20393;-87
2023/05/03 10:37:28;;;;;;;9.50;4.77;;;19.00;6.10;;;;;;6187482;23;20504;-87
2023/05/03 10:40:05;;;;;;;7.43;4.20;;;19.20;4.00;;;;;;6187790;23;20471;-87
2023/05/03 10:42:32;;;;;;;9.10;4.50;;;19.30;6.40;;;;;;6185937;23;20457;-87
2023/05/03 10:45:02;;;;;;;10.80;5.37;;;18.80;3.70;;;;;;6186271;23;20416;-87
2023/05/03 10:47:29;;;;;;;8.30;4.23;;;19.10;3.90;;;;;;6186591;23;20417;-88
2023/05/03 10:50:24;;;;;;;10.00;5.03;;;19.40;5.60;;;;;;6187710;23;20451;-88
2023/05/03 10:52:51;;;;;;;8.10;3.77;;;19.40;1.00;;;;;;6185740;23;20422;-87
2023/05/03 10:55:23;;;;;;;8.60;4.27;;;20.30;1.00;;;;;;6185631;23;20495;-87
2023/05/03 10:57:54;;;;;;;8.00;4.37;;;21.40;1.00;;;;;;6187028;23;20489;-87
2023/05/03 11:00:25;;;;;;;7.93;4.27;;;20.60;1.00;;;;;;6196852;23;20450;-87
2023/05/03 11:03:22;;;;;;;8.27;4.13;;;20.10;1.00;;;;;;6186108;23;20401;-87
2023/05/03 11:05:50;;;;;;;10.13;4.60;;;20.10;1.00;;;;;;6184797;23;20473;-87
2023/05/03 11:08:19;;;;;;;10.80;4.20;;;19.50;1.00;;;;;;6186952;23;20818;-86
2023/05/03 11:10:49;;;;;;;8.20;3.87;;;20.20;4.70;;;;;;6186427;23;20421;-88
2023/05/03 11:13:16;;;;;;;12.07;4.50;;;20.30;1.00;;;;;;6185604;23;20439;-88
2023/05/03 11:15:43;;;;;;;6.03;2.90;;;20.30;1.00;;;;;;6195564;23;20445;-87
2023/05/03 11:18:11;;;;;;;8.90;4.27;;;20.10;1.00;;;;;;6196431;23;20416;-87
2023/05/03 11:20:39;;;;;;;8.70;3.53;;;20.50;1.00;;;;;;6186999;23;20416;-87
2023/05/03 11:23:07;;;;;;;6.80;3.17;;;21.60;1.00;;;;;;6195170;23;20421;-87
2023/05/03 11:25:34;;;;;;;7.00;3.80;;;20.90;1.00;;;;;;6185939;23;20425;-88
2023/05/03 11:28:03;;;;;;;8.50;4.07;;;21.70;1.00;;;;;;6189111;23;20441;-89
2023/05/03 11:30:34;;;;;;;7.73;3.63;;;20.70;1.00;;;;;;6188360;23;20412;-88
2023/05/03 11:33:01;;;;;;;11.13;4.27;;;20.80;1.00;;;;;;6187579;23;20404;-88
2023/05/03 11:35:32;;;;;;;10.30;4.50;;;20.50;1.00;;;;;;6198566;23;20484;-89
2023/05/03 11:37:59;;;;;;;7.43;3.63;;;21.50;1.00;;;;;;6200791;23;20397;-89
2023/05/03 11:40:26;;;;;;;8.37;4.80;;;21.50;1.00;;;;;;6188014;23;20484;-87
2023/05/03 11:42:54;;;;;;;7.70;3.37;;;21.80;1.00;;;;;;6188471;23;20421;-88
2023/05/03 11:45:25;;;;;;;9.30;3.40;;;21.10;1.00;;;;;;6188149;23;20420;-87
2023/05/03 11:47:53;;;;;;;7.00;4.07;;;21.80;1.00;;;;;;6188010;23;20397;-88
2023/05/03 11:50:43;;;;;;;7.53;3.73;;;21.40;1.00;;;;;;6188748;23;20440;-88
2023/05/03 11:53:10;;;;;;;6.60;3.60;;;21.70;1.00;;;;;;6188413;23;20479;-88
2023/05/03 11:55:39;;;;;;;12.83;4.20;;;22.00;1.00;;;;;;6188176;23;20408;-89
2023/05/03 11:58:09;;;;;;;7.50;3.67;;;22.00;1.00;;;;;;6188075;23;20509;-89
2023/05/03 12:00:40;;;;;;;8.10;4.30;;;22.30;1.00;;;;;;6189105;23;20873;-89
2023/05/03 12:03:07;;;;;;;10.30;3.63;;;22.80;1.00;;;;;;6188773;23;20401;-89
2023/05/03 12:05:34;;;;;;;9.40;4.50;;;21.70;1.00;;;;;;6188666;23;20408;-89
2023/05/03 12:08:01;;;;;;;9.90;4.80;;;22.00;1.00;;;;;;6198268;23;20951;-90
2023/05/03 12:10:32;;;;;;;7.97;4.20;;;21.60;1.00;;;;;;6198350;23;20504;-88
2023/05/03 12:13:00;;;;;;;9.13;3.67;;;21.60;1.00;;;;;;6196349;23;20416;-87
2023/05/03 12:15:29;;;;;;;7.07;3.50;;;21.60;1.00;;;;;;6196058;23;20413;-87
2023/05/03 12:17:59;;;;;;;10.00;4.70;;;21.50;1.00;;;;;;6186941;23;20413;-86
2023/05/03 12:20:29;;;;;;;11.60;4.10;;;20.70;1.00;;;;;;6186947;23;20437;-87
2023/05/03 12:22:58;;;;;;;9.23;4.60;;;21.10;1.00;;;;;;6186513;23;20499;-86
2023/05/03 12:25:26;;;;;;;8.40;4.13;;;22.10;1.00;;;;;;6195771;23;20931;-87
2023/05/03 12:27:54;;;;;;;10.43;4.23;;;22.70;1.00;;;;;;6187756;23;20412;-87
2023/05/03 12:30:21;;;;;;;7.93;3.90;;;22.30;1.00;;;;;;6197965;23;20425;-88
2023/05/03 12:32:49;;;;;;;9.03;4.07;;;22.70;1.00;;;;;;6197701;23;20416;-88
2023/05/03 12:35:19;;;;;;;9.00;4.37;;;23.20;1.00;;;;;;6186391;23;20574;-87
2023/05/03 12:37:47;;;;;;;8.43;3.40;;;23.30;1.00;;;;;;6186947;23;20446;-88
2023/05/03 12:40:14;;;;;;;8.70;4.20;;;23.20;1.00;;;;;;6186986;23;20834;-87
2023/05/03 12:42:41;;;;;;;7.40;3.93;;;23.00;1.00;;;;;;6195573;23;20416;-88